createdAt,value
2022-08-08T00:01:08.461Z,1.00
2022-08-08T00:03:47.274Z,0.80
2022-08-08T00:06:28.386Z,0.80
2022-08-08T00:09:07.959Z,0.93
2022-08-08T00:12:03.033Z,1.23
2022-08-08T00:14:57.116Z,1.00
2022-08-08T00:17:35.290Z,0.97
2022-08-08T00:20:21.889Z,1.10
2022-08-08T00:22:56.087Z,1.00
2022-08-08T00:25:44.778Z,0.97
2022-08-08T00:28:34.051Z,1.10
2022-08-08T00:32:29.343Z,1.00
2022-08-08T00:34:20.170Z,0.90
2022-08-08T00:36:54.892Z,0.80
2022-08-08T00:41:06.896Z,1.03
2022-08-08T00:42:43.664Z,1.10
2022-08-08T00:45:38.261Z,0.73
2022-08-08T00:48:59.300Z,0.80
2022-08-08T00:52:00.256Z,0.80
2022-08-08T00:54:53.155Z,1.00
2022-08-08T00:57:58.048Z,0.97
2022-08-08T01:00:27.871Z,0.97
2022-08-08T01:04:01.734Z,0.83
2022-08-08T01:07:07.299Z,1.10
2022-08-08T01:10:05.945Z,1.10
2022-08-08T01:12:59.054Z,0.97
2022-08-08T01:15:57.266Z,1.20
2022-08-08T01:19:02.740Z,1.10
2022-08-08T01:22:13.412Z,1.00
2022-08-08T01:25:02.362Z,1.10
2022-08-08T01:28:07.707Z,1.00
2022-08-08T01:32:03.038Z,1.10
2022-08-08T01:34:37.229Z,0.90
2022-08-08T01:37:57.774Z,1.00
2022-08-08T01:40:26.185Z,0.90
2022-08-08T01:43:02.733Z,1.00
2022-08-08T01:45:41.848Z,0.90
2022-08-08T01:48:23.297Z,1.00
2022-08-08T01:51:31.872Z,1.10
2022-08-08T01:55:19.405Z,1.10
2022-08-08T01:57:05.638Z,0.77
2022-08-08T02:00:02.775Z,0.83
2022-08-08T02:02:40.068Z,0.67
2022-08-08T02:05:23.371Z,0.70
2022-08-08T02:08:02.485Z,1.03
2022-08-08T02:10:44.904Z,1.07
2022-08-08T02:13:52.569Z,0.70
2022-08-08T02:16:21.337Z,0.87
2022-08-08T02:18:58.965Z,0.77
2022-08-08T02:21:48.934Z,1.03
2022-08-08T02:24:22.866Z,0.90
2022-08-08T02:26:55.407Z,0.87
2022-08-08T02:29:41.709Z,0.90
2022-08-08T02:32:33.423Z,1.00
2022-08-08T02:35:28.259Z,1.13
2022-08-08T02:38:13.639Z,1.07
2022-08-08T02:40:45.303Z,1.30
2022-08-08T02:44:37.849Z,1.00
2022-08-08T02:46:50.641Z,1.10
2022-08-08T02:49:48.271Z,0.80
2022-08-08T02:52:39.655Z,0.80
2022-08-08T02:55:21.660Z,0.87
2022-08-08T02:58:26.707Z,1.03
2022-08-08T03:01:08.766Z,0.90
2022-08-08T03:05:02.470Z,1.00
2022-08-08T03:07:57.982Z,1.00
2022-08-08T03:10:53.592Z,1.10
2022-08-08T03:15:57.189Z,1.33
2022-08-08T03:16:54.788Z,0.90
2022-08-08T03:19:51.561Z,0.80
2022-08-08T03:22:37.728Z,1.30
2022-08-08T03:25:14.644Z,0.93
2022-08-08T03:27:56.616Z,0.90
2022-08-08T03:30:25.414Z,0.93
2022-08-08T03:33:55.907Z,1.10
2022-08-08T03:35:58.598Z,1.17
2022-08-08T03:38:57.106Z,1.20
2022-08-08T03:41:32.166Z,1.20
2022-08-08T03:44:06.587Z,1.00
2022-08-08T03:46:44.546Z,1.20
2022-08-08T03:49:58.887Z,1.17
2022-08-08T03:52:07.952Z,1.17
2022-08-08T03:55:02.629Z,1.40
2022-08-08T03:58:32.863Z,1.20
2022-08-08T04:00:22.133Z,1.07
2022-08-08T04:02:58.626Z,1.20
2022-08-08T04:05:28.828Z,1.50
2022-08-08T04:07:57.829Z,1.37
2022-08-08T04:10:26.042Z,1.40
2022-08-08T04:13:17.320Z,1.30
2022-08-08T04:16:03.621Z,1.20
2022-08-08T04:18:39.324Z,1.10
2022-08-08T04:21:12.394Z,1.10
2022-08-08T04:24:11.982Z,1.50
2022-08-08T04:26:40.115Z,1.10
2022-08-08T04:29:17.515Z,1.10
2022-08-08T04:31:59.185Z,1.17
2022-08-08T04:34:32.036Z,1.03
2022-08-08T04:37:01.034Z,1.33
2022-08-08T04:40:04.092Z,1.10
2022-08-08T04:42:19.691Z,1.20
2022-08-08T04:44:48.695Z,1.60
2022-08-08T04:47:17.037Z,1.13
2022-08-08T04:50:01.084Z,1.23
2022-08-08T04:52:35.022Z,1.90
2022-08-08T04:55:04.512Z,1.60
2022-08-08T04:57:34.471Z,1.03
2022-08-08T05:00:06.066Z,1.07
2022-08-08T05:02:34.379Z,1.90
2022-08-08T05:05:03.085Z,1.10
2022-08-08T05:07:42.041Z,1.40
2022-08-08T05:10:12.489Z,1.07
2022-08-08T05:12:59.771Z,1.10
2022-08-08T05:15:31.633Z,1.63
2022-08-08T05:18:18.215Z,1.20
2022-08-08T05:20:50.138Z,1.20
2022-08-08T05:23:19.267Z,1.40
2022-08-08T05:25:48.725Z,1.40
2022-08-08T05:28:48.431Z,1.50
2022-08-08T05:31:19.388Z,2.43
2022-08-08T05:33:54.277Z,1.70
2022-08-08T05:36:28.002Z,1.60
2022-08-08T05:38:58.901Z,1.10
2022-08-08T05:41:27.822Z,1.00
2022-08-08T05:44:03.272Z,0.83
2022-08-08T05:46:33.964Z,1.03
2022-08-08T05:49:01.981Z,1.10
2022-08-08T05:51:47.943Z,1.20
2022-08-08T05:54:27.654Z,1.00
2022-08-08T05:57:08.091Z,1.00
2022-08-08T05:59:58.594Z,1.97
2022-08-08T06:02:48.014Z,1.33
2022-08-08T06:05:33.710Z,1.30
2022-08-08T06:08:09.908Z,0.90
2022-08-08T06:10:49.885Z,0.70
2022-08-08T06:13:22.863Z,0.90
2022-08-08T06:15:53.934Z,0.90
2022-08-08T06:18:25.445Z,0.73
2022-08-08T06:20:57.139Z,0.83
2022-08-08T06:23:29.148Z,0.80
2022-08-08T06:26:39.110Z,0.80
2022-08-08T06:29:26.833Z,1.00
2022-08-08T06:32:10.406Z,1.10
2022-08-08T06:34:40.875Z,1.10
2022-08-08T06:37:25.035Z,1.20
2022-08-08T06:39:56.705Z,1.00
2022-08-08T06:42:25.333Z,0.73
2022-08-08T06:44:55.913Z,1.03
2022-08-08T06:47:33.499Z,1.07
2022-08-08T06:50:04.289Z,0.90
2022-08-08T06:52:32.890Z,0.90
2022-08-08T06:55:01.775Z,0.70
2022-08-08T06:57:44.237Z,0.90
2022-08-08T07:00:17.677Z,0.80
2022-08-08T07:02:59.499Z,0.90
2022-08-08T07:05:40.435Z,0.80
2022-08-08T07:08:12.508Z,0.90
2022-08-08T07:10:52.541Z,1.60
2022-08-08T07:13:25.157Z,1.10
2022-08-08T07:16:05.401Z,1.00
2022-08-08T07:18:43.588Z,1.53
2022-08-08T07:21:20.418Z,1.50
2022-08-08T07:24:01.983Z,1.00
2022-08-08T07:26:35.648Z,1.00
2022-08-08T07:29:08.245Z,0.90
2022-08-08T07:31:39.835Z,0.77
2022-08-08T07:34:08.868Z,0.90
2022-08-08T07:36:48.003Z,0.87
2022-08-08T07:39:19.158Z,0.97
2022-08-08T07:42:04.394Z,1.50
2022-08-08T07:44:37.324Z,1.00
2022-08-08T07:47:08.748Z,0.87
2022-08-08T07:49:40.020Z,2.20
2022-08-08T07:52:13.278Z,1.10
2022-08-08T07:54:52.714Z,1.10
2022-08-08T07:57:25.676Z,0.87
2022-08-08T08:00:00.448Z,0.83
2022-08-08T08:02:38.531Z,0.70
2022-08-08T08:05:15.346Z,0.60
2022-08-08T08:07:45.945Z,0.77
2022-08-08T08:10:15.175Z,0.70
2022-08-08T08:12:48.946Z,0.70
2022-08-08T08:15:21.744Z,1.03
2022-08-08T08:17:55.954Z,0.90
2022-08-08T08:20:30.207Z,0.70
2022-08-08T08:22:59.642Z,1.00
2022-08-08T08:25:42.503Z,1.67
2022-08-08T08:28:21.474Z,1.10
2022-08-08T08:30:51.998Z,0.93
2022-08-08T08:33:20.954Z,1.63
2022-08-08T08:36:18.522Z,2.40
2022-08-08T08:38:39.333Z,1.43
2022-08-08T08:41:20.023Z,1.20
2022-08-08T08:43:50.939Z,0.97
2022-08-08T08:46:25.925Z,1.10
2022-08-08T08:48:54.699Z,1.03
2022-08-08T08:51:22.677Z,1.30
2022-08-08T08:53:55.968Z,1.30
2022-08-08T08:56:28.413Z,1.87
2022-08-08T08:58:58.131Z,1.63
2022-08-08T09:01:28.898Z,2.03
2022-08-08T09:04:01.423Z,1.30
2022-08-08T09:06:34.650Z,1.70
2022-08-08T09:09:07.389Z,1.50
2022-08-08T09:12:01.388Z,1.75
2022-08-08T09:14:30.186Z,1.13
2022-08-08T09:16:57.772Z,1.13
2022-08-08T09:22:02.429Z,1.25
2022-08-08T09:22:25.928Z,1.10
2022-08-08T09:24:58.402Z,1.70
2022-08-08T09:27:41.894Z,1.80
2022-08-08T09:30:17.346Z,1.23
2022-08-08T09:33:11.842Z,1.25
2022-08-08T09:35:37.489Z,1.20
2022-08-08T09:38:17.543Z,1.45
2022-08-08T09:40:55.698Z,1.30
2022-08-08T09:44:04.976Z,1.38
2022-08-08T09:46:25.422Z,1.58
2022-08-08T09:49:04.280Z,1.27
2022-08-08T09:52:06.429Z,1.40
2022-08-08T09:54:38.764Z,1.10
2022-08-08T09:57:16.411Z,1.00
2022-08-08T09:59:53.230Z,1.20
2022-08-08T10:02:36.685Z,1.13
2022-08-08T10:05:07.146Z,1.33
2022-08-08T10:08:01.650Z,1.20
2022-08-08T10:10:31.737Z,1.05
2022-08-08T10:13:14.037Z,1.20
2022-08-08T10:15:42.378Z,1.00
2022-08-08T10:18:38.694Z,1.38
2022-08-08T10:21:25.091Z,1.80
2022-08-08T10:23:56.013Z,1.38
2022-08-08T10:26:40.513Z,2.53
2022-08-08T10:29:24.949Z,1.90
2022-08-08T10:32:15.917Z,1.70
2022-08-08T10:34:58.521Z,1.50
2022-08-08T10:37:28.408Z,1.40
2022-08-08T10:39:58.695Z,1.30
2022-08-08T10:42:34.124Z,1.10
2022-08-08T10:45:08.799Z,1.20
2022-08-08T10:47:43.148Z,1.07
2022-08-08T10:50:15.774Z,1.20
2022-08-08T10:52:44.431Z,1.13
2022-08-08T10:55:15.590Z,1.13
2022-08-08T10:58:05.723Z,1.03
2022-08-08T11:00:48.581Z,0.95
2022-08-08T11:03:36.508Z,1.00
2022-08-08T11:06:12.257Z,0.77
2022-08-08T11:08:50.099Z,0.70
2022-08-08T11:11:32.393Z,1.10
2022-08-08T11:14:12.413Z,0.98
2022-08-08T11:16:47.251Z,1.02
2022-08-08T11:19:15.663Z,0.90
2022-08-08T11:21:55.728Z,1.00
2022-08-08T11:24:26.550Z,1.40
2022-08-08T11:26:57.509Z,1.10
2022-08-08T11:29:41.329Z,1.08
2022-08-08T11:32:19.110Z,1.20
2022-08-08T11:38:07.381Z,1.17
2022-08-08T11:40:26.591Z,1.05
2022-08-08T11:42:55.904Z,0.90
2022-08-08T11:45:23.888Z,0.90
2022-08-08T11:48:05.072Z,1.00
2022-08-08T11:50:37.657Z,1.38
2022-08-08T11:53:06.128Z,1.20
2022-08-08T11:55:36.695Z,0.95
2022-08-08T11:58:08.931Z,0.90
2022-08-08T12:00:47.166Z,0.88
2022-08-08T12:03:22.515Z,1.00
2022-08-08T12:05:51.849Z,1.00
2022-08-08T12:08:31.963Z,0.80
2022-08-08T12:11:02.265Z,0.73
2022-08-08T12:13:38.379Z,1.20
2022-08-08T12:16:28.265Z,1.00
2022-08-08T12:19:05.917Z,0.90
2022-08-08T12:22:00.296Z,0.90
2022-08-08T12:24:27.944Z,0.93
2022-08-08T12:26:57.039Z,0.98
2022-08-08T12:29:40.692Z,0.82
2022-08-08T12:32:16.843Z,0.70
2022-08-08T12:34:52.919Z,0.80
2022-08-08T12:37:41.334Z,0.85
2022-08-08T12:40:23.935Z,0.70
2022-08-08T12:42:53.435Z,0.57
2022-08-08T12:45:58.701Z,0.98
2022-08-08T12:48:37.467Z,0.82
2022-08-08T12:51:11.094Z,0.88
2022-08-08T12:53:45.881Z,0.65
2022-08-08T12:56:19.850Z,0.60
2022-08-08T12:58:54.549Z,0.80
2022-08-08T13:01:35.039Z,0.90
2022-08-08T13:04:18.312Z,0.68
2022-08-08T13:07:00.956Z,0.93
2022-08-08T13:10:02.052Z,0.93
2022-08-08T13:12:29.101Z,0.70
2022-08-08T13:15:09.351Z,0.68
2022-08-08T13:18:08.973Z,0.88
2022-08-08T13:20:27.481Z,1.00
2022-08-08T13:25:50.385Z,1.00
2022-08-08T13:28:32.041Z,1.17
2022-08-08T13:31:01.835Z,1.00
2022-08-08T13:33:42.092Z,1.02
2022-08-08T13:36:11.767Z,0.60
2022-08-08T13:38:41.321Z,0.60
2022-08-08T13:41:16.457Z,0.98
2022-08-08T13:43:46.601Z,0.82
2022-08-08T13:46:26.807Z,0.50
2022-08-08T13:49:11.965Z,0.50
2022-08-08T13:51:53.932Z,0.52
2022-08-08T13:54:29.598Z,0.47
2022-08-08T13:57:08.670Z,0.40
2022-08-08T13:59:40.624Z,0.40
2022-08-08T14:02:30.270Z,0.93
2022-08-08T14:05:09.572Z,0.50
2022-08-08T14:07:53.122Z,0.40
2022-08-08T14:10:33.588Z,0.55
2022-08-08T14:13:20.729Z,0.60
2022-08-08T14:16:03.031Z,0.50
2022-08-08T14:18:34.839Z,0.75
2022-08-08T14:21:12.567Z,0.77
2022-08-08T14:24:07.015Z,0.60
2022-08-08T14:26:33.179Z,0.77
2022-08-08T14:29:01.604Z,0.70
2022-08-08T14:32:05.818Z,0.70
2022-08-08T14:34:23.317Z,0.40
2022-08-08T14:36:57.803Z,0.50
2022-08-08T14:39:25.439Z,1.00
2022-08-08T14:42:16.751Z,0.50
2022-08-08T14:44:54.760Z,0.70
2022-08-08T14:47:23.294Z,0.50
2022-08-08T14:50:06.489Z,0.50
2022-08-08T14:52:43.795Z,0.50
2022-08-08T14:55:16.420Z,0.35
2022-08-08T14:58:00.864Z,0.50
2022-08-08T15:00:35.241Z,0.35
2022-08-08T15:03:15.484Z,0.45
2022-08-08T15:05:54.297Z,0.93
2022-08-08T15:08:34.314Z,0.85
2022-08-08T15:11:04.454Z,0.60
2022-08-08T15:13:40.042Z,0.47
2022-08-08T15:16:12.095Z,0.82
2022-08-08T15:18:49.963Z,0.70
2022-08-08T15:21:19.378Z,1.58
2022-08-08T15:23:50.875Z,0.50
2022-08-08T15:26:19.227Z,0.35
2022-08-08T15:28:53.018Z,0.40
2022-08-08T15:31:25.938Z,0.43
2022-08-08T15:34:08.753Z,0.47
2022-08-08T15:36:56.606Z,0.70
2022-08-08T15:39:24.285Z,0.73
2022-08-08T15:41:53.446Z,0.93
2022-08-08T15:44:23.037Z,1.60
2022-08-08T15:46:51.267Z,1.17
2022-08-08T15:49:20.834Z,0.43
2022-08-08T15:51:49.950Z,0.68
2022-08-08T15:54:37.680Z,0.68
2022-08-08T15:57:07.488Z,0.60
2022-08-08T16:00:05.258Z,0.52
2022-08-08T16:02:30.686Z,0.63
2022-08-08T16:04:59.409Z,0.50
2022-08-08T16:07:39.592Z,0.43
2022-08-08T16:13:10.889Z,1.08
2022-08-08T16:13:34.804Z,0.70
2022-08-08T16:16:12.810Z,0.55
2022-08-08T16:18:56.175Z,0.40
2022-08-08T16:21:27.754Z,0.60
2022-08-08T16:23:56.343Z,0.80
2022-08-08T16:26:34.516Z,0.60
2022-08-08T16:29:15.790Z,0.70
2022-08-08T16:31:51.448Z,0.98
2022-08-08T16:34:24.824Z,0.80
2022-08-08T16:36:52.848Z,0.60
2022-08-08T16:39:49.042Z,0.50
2022-08-08T16:42:18.004Z,0.85
2022-08-08T16:44:47.367Z,0.73
2022-08-08T16:47:40.746Z,1.13
2022-08-08T16:50:13.913Z,1.00
2022-08-08T16:55:04.272Z,1.25
2022-08-08T16:55:53.006Z,1.10
2022-08-08T16:58:20.441Z,0.80
2022-08-08T17:00:51.510Z,0.63
2022-08-08T17:03:25.163Z,0.70
2022-08-08T17:06:35.453Z,0.47
2022-08-08T17:08:59.175Z,0.60
2022-08-08T17:11:28.194Z,0.80
2022-08-08T17:14:17.789Z,0.73
2022-08-08T17:16:57.755Z,1.13
2022-08-08T17:19:28.975Z,1.00
2022-08-08T17:21:57.369Z,1.70
2022-08-08T17:24:27.660Z,1.55
2022-08-08T17:26:57.878Z,1.30
2022-08-08T17:29:26.527Z,1.00
2022-08-08T17:31:54.468Z,0.75
2022-08-08T17:34:48.382Z,0.60
2022-08-08T17:37:14.467Z,0.80
2022-08-08T17:40:03.516Z,0.60
2022-08-08T17:42:29.747Z,0.50
2022-08-08T17:44:58.717Z,0.80
2022-08-08T17:47:40.140Z,0.85
2022-08-08T17:50:10.916Z,0.55
2022-08-08T17:52:43.089Z,0.90
2022-08-08T17:56:05.974Z,0.70
2022-08-08T17:58:01.883Z,1.40
2022-08-08T18:00:30.801Z,2.67
2022-08-08T18:03:08.417Z,2.57
2022-08-08T18:05:44.119Z,3.47
2022-08-08T18:08:25.239Z,3.10
2022-08-08T18:11:07.748Z,1.40
2022-08-08T18:13:41.610Z,0.90
2022-08-08T18:16:10.103Z,0.97
2022-08-08T18:18:42.992Z,2.67
2022-08-08T18:21:34.651Z,2.47
2022-08-08T18:24:19.754Z,1.37
2022-08-08T18:26:53.840Z,1.10
2022-08-08T18:29:29.508Z,0.90
2022-08-08T18:31:58.370Z,1.10
2022-08-08T18:34:27.628Z,1.77
2022-08-08T18:36:57.059Z,1.43
2022-08-08T18:39:28.049Z,2.87
2022-08-08T18:42:03.325Z,1.80
2022-08-08T18:44:32.895Z,1.23
2022-08-08T18:47:02.605Z,0.90
2022-08-08T18:49:32.674Z,0.80
2022-08-08T18:52:18.397Z,1.60
2022-08-08T18:55:00.450Z,5.50
2022-08-08T18:57:40.866Z,2.57
2022-08-08T19:00:16.525Z,1.80
2022-08-08T19:02:55.910Z,1.40
2022-08-08T19:05:31.834Z,1.57
2022-08-08T19:08:09.230Z,3.40
2022-08-08T19:10:37.464Z,4.17
2022-08-08T19:13:10.796Z,3.40
2022-08-08T19:15:51.905Z,5.30
2022-08-08T19:18:32.522Z,5.07
2022-08-08T19:21:29.075Z,3.37
2022-08-08T19:24:00.139Z,2.30
2022-08-08T19:26:30.232Z,2.40
2022-08-08T19:28:59.278Z,1.70
2022-08-08T19:31:31.405Z,2.57
2022-08-08T19:34:15.245Z,1.60
2022-08-08T19:36:52.068Z,1.60
2022-08-08T19:39:22.964Z,1.30
2022-08-08T19:41:51.078Z,1.40
2022-08-08T19:44:42.447Z,1.13
2022-08-08T19:47:07.122Z,1.50
2022-08-08T19:49:37.850Z,1.10
2022-08-08T19:52:07.000Z,0.83
2022-08-08T19:54:36.401Z,1.13
2022-08-08T19:57:07.583Z,0.80
2022-08-08T19:59:35.702Z,1.20
2022-08-08T20:02:05.063Z,0.80
2022-08-08T20:04:33.288Z,1.00
2022-08-08T20:07:05.613Z,1.20
2022-08-08T20:09:56.581Z,1.40
2022-08-08T20:12:33.044Z,1.03
2022-08-08T20:15:16.875Z,0.97
2022-08-08T20:17:45.956Z,1.20
2022-08-08T20:20:15.959Z,1.33
2022-08-08T20:22:52.630Z,0.87
2022-08-08T20:25:29.861Z,1.17
2022-08-08T20:28:06.886Z,1.17
2022-08-08T20:30:55.977Z,1.00
2022-08-08T20:35:58.446Z,1.40
2022-08-08T20:38:32.930Z,0.93
2022-08-08T20:41:17.682Z,1.30
2022-08-08T20:43:49.713Z,0.97
2022-08-08T20:46:20.838Z,1.10
2022-08-08T20:48:48.972Z,1.10
2022-08-08T20:51:18.256Z,1.10
2022-08-08T20:53:59.785Z,1.60
2022-08-08T20:56:35.723Z,1.50
2022-08-08T20:59:05.983Z,1.80
2022-08-08T21:01:34.446Z,1.77
2022-08-08T21:04:23.390Z,1.57
2022-08-08T21:06:53.448Z,2.13
2022-08-08T21:09:21.863Z,1.67
2022-08-08T21:12:02.736Z,1.50
2022-08-08T21:14:34.710Z,1.40
2022-08-08T21:17:06.107Z,1.40
2022-08-08T21:19:45.838Z,1.23
2022-08-08T21:22:15.955Z,1.30
2022-08-08T21:24:52.697Z,1.60
2022-08-08T21:27:38.622Z,1.13
2022-08-08T21:30:10.918Z,1.10
2022-08-08T21:32:51.789Z,1.70
2022-08-08T21:36:13.776Z,2.50
2022-08-08T21:38:16.672Z,1.60
2022-08-08T21:40:55.196Z,1.40
2022-08-08T21:43:33.185Z,1.40
2022-08-08T21:48:04.939Z,1.40
2022-08-08T21:48:51.724Z,1.30
2022-08-08T21:54:16.842Z,1.40
2022-08-08T21:54:27.093Z,1.90
2022-08-08T21:56:59.170Z,1.60
2022-08-08T22:00:03.197Z,1.73
2022-08-08T22:02:19.655Z,1.67
2022-08-08T22:04:50.839Z,1.47
2022-08-08T22:07:19.219Z,2.00
2022-08-08T22:09:46.828Z,1.77
2022-08-08T22:12:17.322Z,1.80
2022-08-08T22:14:47.335Z,1.80
2022-08-08T22:17:19.138Z,1.63
2022-08-08T22:20:11.223Z,1.60
2022-08-08T22:22:38.162Z,1.43
2022-08-08T22:25:12.314Z,1.27
2022-08-08T22:28:04.231Z,1.63
2022-08-08T22:30:41.331Z,1.27
2022-08-08T22:34:05.046Z,1.30
2022-08-08T22:36:05.663Z,1.43
2022-08-08T22:38:48.350Z,1.63
2022-08-08T22:41:21.813Z,1.53
2022-08-08T22:44:02.064Z,1.80
2022-08-08T22:46:33.206Z,1.87
2022-08-08T22:49:00.997Z,2.33
2022-08-08T22:51:29.243Z,1.83
2022-08-08T22:54:33.311Z,1.90
2022-08-08T22:56:50.451Z,1.87
2022-08-08T22:59:18.814Z,2.30
2022-08-08T23:02:02.442Z,1.70
2022-08-08T23:04:32.423Z,1.43
2022-08-08T23:07:03.046Z,1.70
2022-08-08T23:09:39.066Z,1.60
2022-08-08T23:12:28.676Z,1.53
2022-08-08T23:14:59.796Z,1.73
2022-08-08T23:17:54.538Z,1.63
2022-08-08T23:20:27.366Z,1.30
2022-08-08T23:22:56.709Z,1.70
2022-08-08T23:25:24.469Z,1.60
2022-08-08T23:27:54.674Z,1.70
2022-08-08T23:30:22.791Z,1.57
2022-08-08T23:32:53.019Z,1.10
2022-08-08T23:35:20.634Z,1.30
2022-08-08T23:38:02.073Z,1.20
2022-08-08T23:40:31.266Z,1.60
2022-08-08T23:43:04.493Z,1.53
2022-08-08T23:49:02.732Z,1.30
2022-08-08T23:49:07.326Z,1.60
2022-08-08T23:51:12.789Z,1.40
2022-08-08T23:54:39.117Z,1.70
2022-08-08T23:56:46.641Z,2.00
2022-08-08T23:59:17.559Z,1.27
